createdAt,value
2018-02-09T00:02:07.438Z,48.70
2018-02-09T00:04:35.469Z,47.13
2018-02-09T00:07:04.241Z,46.60
2018-02-09T00:09:32.421Z,53.73
2018-02-09T00:12:00.525Z,51.63
2018-02-09T00:14:29.251Z,53.17
2018-02-09T00:16:57.369Z,52.30
2018-02-09T00:19:25.397Z,54.60
2018-02-09T00:21:53.413Z,53.13
2018-02-09T00:24:22.312Z,52.43
2018-02-09T00:26:51.050Z,53.23
2018-02-09T00:29:19.037Z,58.33
2018-02-09T00:31:47.209Z,51.10
2018-02-09T00:34:15.219Z,50.43
2018-02-09T00:36:43.969Z,58.33
2018-02-09T00:39:12.129Z,51.60
2018-02-09T00:41:40.157Z,50.20
2018-02-09T00:44:08.938Z,48.53
2018-02-09T00:46:37.829Z,48.00
2018-02-09T00:49:06.034Z,55.73
2018-02-09T00:51:34.080Z,51.60
2018-02-09T00:54:02.938Z,49.50
2018-02-09T00:56:32.861Z,52.97
2018-02-09T00:59:00.836Z,51.13
2018-02-09T01:01:28.946Z,52.60
2018-02-09T01:03:57.674Z,52.07
2018-02-09T01:06:25.657Z,52.20
2018-02-09T01:08:53.897Z,50.20
2018-02-09T01:11:21.950Z,51.50
2018-02-09T01:13:50.813Z,49.97
2018-02-09T01:16:18.945Z,51.87
2018-02-09T01:18:46.968Z,49.43
2018-02-09T01:21:15.058Z,50.87
2018-02-09T01:23:43.912Z,47.73
2018-02-09T01:26:11.898Z,50.40
2018-02-09T01:28:39.879Z,46.43
2018-02-09T01:31:08.025Z,48.20
2018-02-09T01:33:36.045Z,48.07
2018-02-09T01:36:04.778Z,49.00
2018-02-09T01:38:32.895Z,50.60
2018-02-09T01:41:01.724Z,59.93
2018-02-09T01:43:29.752Z,50.50
2018-02-09T01:45:58.616Z,51.87
2018-02-09T01:48:26.633Z,50.57
2018-02-09T01:50:55.520Z,63.50
2018-02-09T01:53:24.404Z,54.07
2018-02-09T01:55:53.160Z,59.77
2018-02-09T01:58:21.148Z,57.33
2018-02-09T02:00:50.086Z,51.53
2018-02-09T02:03:18.088Z,53.17
2018-02-09T02:05:46.072Z,52.63
2018-02-09T02:08:14.340Z,56.43
2018-02-09T02:10:42.348Z,51.90
2018-02-09T02:13:11.064Z,52.70
2018-02-09T02:15:39.192Z,51.20
2018-02-09T02:18:07.180Z,54.87
2018-02-09T02:20:35.900Z,56.33
2018-02-09T02:23:04.061Z,54.17
2018-02-09T02:25:32.046Z,57.43
2018-02-09T02:28:00.038Z,50.00
2018-02-09T02:30:28.185Z,56.63
2018-02-09T02:32:56.275Z,53.63
2018-02-09T02:35:24.308Z,57.33
2018-02-09T02:37:53.172Z,55.47
2018-02-09T02:40:21.188Z,49.57
2018-02-09T02:42:49.218Z,54.73
2018-02-09T02:45:17.353Z,55.20
2018-02-09T02:47:45.332Z,58.33
2018-02-09T02:50:13.349Z,52.97
2018-02-09T02:52:42.465Z,53.63
2018-02-09T02:55:11.193Z,53.83
2018-02-09T02:57:39.217Z,60.10
2018-02-09T03:00:08.109Z,52.97
2018-02-09T03:02:36.829Z,51.83
2018-02-09T03:05:04.825Z,52.43
2018-02-09T03:07:32.962Z,53.93
2018-02-09T03:10:00.945Z,55.67
2018-02-09T03:12:28.965Z,56.23
2018-02-09T03:14:57.097Z,51.33
2018-02-09T03:17:25.126Z,55.20
2018-02-09T03:19:53.844Z,56.27
2018-02-09T03:22:21.941Z,59.13
2018-02-09T03:24:49.961Z,57.63
2018-02-09T03:27:18.717Z,52.47
2018-02-09T03:29:46.824Z,57.00
2018-02-09T03:32:15.676Z,55.23
2018-02-09T03:34:43.665Z,53.17
2018-02-09T03:37:11.777Z,55.60
2018-02-09T03:39:39.772Z,51.13
2018-02-09T03:42:07.804Z,51.87
2018-02-09T03:44:36.662Z,51.50
2018-02-09T04:00:11.596Z,52.70
2018-02-09T04:02:39.599Z,50.37
2018-02-09T04:05:08.333Z,54.03
2018-02-09T04:07:36.489Z,47.63
2018-02-09T04:10:04.512Z,46.47
2018-02-09T04:12:32.628Z,47.90
2018-02-09T04:15:00.728Z,48.20
2018-02-09T04:17:28.869Z,51.17
2018-02-09T04:19:56.880Z,55.13
2018-02-09T04:22:25.033Z,54.30
2018-02-09T04:24:53.054Z,54.37
2018-02-09T04:27:21.080Z,52.07
2018-02-09T04:29:49.244Z,53.53
2018-02-09T04:32:20.405Z,55.47
2018-02-09T04:43:28.185Z,58.03
2018-02-09T04:45:56.949Z,60.43
2018-02-09T04:48:24.972Z,61.87
2018-02-09T04:50:52.995Z,59.53
2018-02-09T04:53:21.150Z,61.00
2018-02-09T04:55:49.188Z,59.60
2018-02-09T04:58:17.182Z,60.03
2018-02-09T05:00:45.535Z,62.50
2018-02-09T05:03:13.512Z,59.80
2018-02-09T05:05:41.515Z,63.57
2018-02-09T05:08:09.665Z,60.80
2018-02-09T05:10:37.689Z,62.70
2018-02-09T05:13:05.709Z,60.17
2018-02-09T05:15:33.862Z,62.40
2018-02-09T05:18:01.881Z,60.97
2018-02-09T05:20:29.869Z,61.37
2018-02-09T05:22:58.053Z,62.97
2018-02-09T05:25:26.041Z,62.07
2018-02-09T05:27:54.793Z,60.47
2018-02-09T05:30:22.953Z,62.37
2018-02-09T05:32:50.976Z,64.23
2018-02-09T05:35:19.713Z,62.97
2018-02-09T05:37:48.105Z,62.13
2018-02-09T05:40:16.341Z,63.03
2018-02-09T05:42:45.480Z,59.13
2018-02-09T05:45:13.902Z,59.23
2018-02-09T05:47:42.104Z,60.87
2018-02-09T05:50:10.121Z,58.23
2018-02-09T05:52:38.229Z,59.40
2018-02-09T05:55:06.207Z,59.30
2018-02-09T05:57:34.184Z,61.47
2018-02-09T06:00:02.304Z,59.17
2018-02-09T06:02:30.437Z,59.50
2018-02-09T06:04:58.453Z,62.17
2018-02-09T06:07:26.592Z,61.00
2018-02-09T06:09:54.606Z,61.23
2018-02-09T06:12:22.698Z,58.30
2018-02-09T06:14:51.588Z,57.30
2018-02-09T06:17:20.343Z,58.50
2018-02-09T06:19:48.341Z,59.70
2018-02-09T06:22:17.207Z,59.70
2018-02-09T06:24:45.245Z,61.87
2018-02-09T06:27:13.237Z,67.90
2018-02-09T06:29:41.443Z,63.47
2018-02-09T06:32:09.544Z,62.80
2018-02-09T06:34:38.305Z,68.13
2018-02-09T06:37:06.453Z,65.77
2018-02-09T06:39:35.046Z,66.47
2018-02-09T06:42:03.156Z,66.23
2018-02-09T06:44:32.026Z,62.40
2018-02-09T06:47:00.000Z,66.80
2018-02-09T06:49:28.016Z,66.50
2018-02-09T06:51:56.624Z,64.10
2018-02-09T06:54:26.089Z,64.17
2018-02-09T06:56:54.102Z,71.27
2018-02-09T06:59:22.224Z,75.50
2018-02-09T07:01:51.033Z,72.13
2018-02-09T07:04:19.992Z,73.10
2018-02-09T07:06:48.222Z,74.40
2018-02-09T07:09:16.345Z,73.27
2018-02-09T07:11:44.436Z,73.67
2018-02-09T07:14:13.281Z,72.80
2018-02-09T07:16:41.261Z,67.87
2018-02-09T07:19:09.240Z,68.07
2018-02-09T07:21:37.460Z,71.90
2018-02-09T07:24:07.197Z,65.87
2018-02-09T07:26:35.545Z,63.90
2018-02-09T07:29:15.547Z,68.47
2018-02-09T07:31:50.151Z,65.23
2018-02-09T07:34:18.744Z,68.87
2018-02-09T07:36:46.761Z,69.40
2018-02-09T07:39:15.493Z,68.67
2018-02-09T07:41:43.741Z,67.13
2018-02-09T07:44:12.489Z,65.53
2018-02-09T07:46:40.485Z,63.90
2018-02-09T07:49:09.369Z,69.40
2018-02-09T07:51:37.465Z,65.80
2018-02-09T07:54:06.229Z,66.53
2018-02-09T07:56:34.476Z,66.03
2018-02-09T07:59:02.483Z,63.77
2018-02-09T08:01:30.976Z,58.67
2018-02-09T08:03:59.156Z,62.77
2018-02-09T08:06:28.037Z,62.93
2018-02-09T08:08:56.837Z,61.83
2018-02-09T08:11:28.064Z,60.73
2018-02-09T08:13:56.081Z,60.50
2018-02-09T08:16:24.110Z,62.27
2018-02-09T08:18:52.238Z,62.17
2018-02-09T08:21:20.273Z,57.23
2018-02-09T08:23:49.026Z,58.97
2018-02-09T08:26:17.185Z,59.47
2018-02-09T08:28:45.380Z,56.23
2018-02-09T08:31:14.153Z,58.90
2018-02-09T08:33:42.330Z,55.93
2018-02-09T08:36:10.329Z,55.50
2018-02-09T08:38:38.317Z,55.93
2018-02-09T08:41:07.253Z,54.90
2018-02-09T08:43:35.291Z,53.43
2018-02-09T08:46:03.493Z,56.50
2018-02-09T08:48:31.623Z,54.07
2018-02-09T08:51:00.389Z,52.03
2018-02-09T08:53:28.393Z,52.00
2018-02-09T08:55:57.276Z,53.40
2018-02-09T08:58:26.013Z,48.97
2018-02-09T09:00:54.087Z,50.40
2018-02-09T09:03:22.261Z,50.57
2018-02-09T09:05:50.301Z,49.77
2018-02-09T09:08:19.218Z,47.93
2018-02-09T09:10:47.361Z,44.40
2018-02-09T09:13:16.097Z,52.27
2018-02-09T09:15:44.132Z,51.93
2018-02-09T09:18:12.267Z,46.77
2018-02-09T09:20:40.257Z,50.87
2018-02-09T09:23:09.020Z,49.63
2018-02-09T09:25:37.177Z,49.47
2018-02-09T09:28:05.190Z,50.57
2018-02-09T09:30:33.933Z,47.77
2018-02-09T09:33:02.113Z,52.27
2018-02-09T09:35:30.133Z,50.67
2018-02-09T09:37:58.861Z,49.70
2018-02-09T09:40:27.016Z,50.77
2018-02-09T09:42:55.110Z,51.80
2018-02-09T09:45:23.124Z,50.33
2018-02-09T09:47:51.231Z,50.13
2018-02-09T09:50:19.976Z,52.47
2018-02-09T09:52:48.012Z,52.37
2018-02-09T09:55:16.164Z,50.40
2018-02-09T09:57:44.941Z,52.30
2018-02-09T10:00:13.842Z,49.90
2018-02-09T10:02:42.769Z,51.07
2018-02-09T10:05:10.764Z,48.10
2018-02-09T10:07:38.767Z,50.13
2018-02-09T10:10:07.036Z,52.53
2018-02-09T10:12:35.036Z,50.07
2018-02-09T10:15:03.803Z,39.20
2018-02-09T10:17:31.916Z,48.57
2018-02-09T10:19:59.962Z,50.77
2018-02-09T10:22:28.760Z,47.13
2018-02-09T10:24:57.663Z,47.60
2018-02-09T10:27:25.656Z,42.80
2018-02-09T10:29:53.713Z,40.27
2018-02-09T10:32:21.892Z,40.97
2018-02-09T10:34:49.933Z,38.37
2018-02-09T10:37:18.685Z,34.53
2018-02-09T10:39:46.834Z,41.90
2018-02-09T10:42:14.983Z,42.07
2018-02-09T10:44:43.730Z,37.50
2018-02-09T10:47:11.901Z,41.20
2018-02-09T10:49:40.024Z,33.33
2018-02-09T10:52:08.095Z,29.90
2018-02-09T10:54:36.212Z,25.87
2018-02-09T10:57:04.270Z,24.70
2018-02-09T10:59:32.272Z,31.80
2018-02-09T11:02:00.526Z,30.83
2018-02-09T11:04:28.535Z,30.47
2018-02-09T11:06:56.745Z,32.60
2018-02-09T11:09:30.396Z,31.03
2018-02-09T11:12:02.741Z,33.37
2018-02-09T11:14:30.789Z,32.47
2018-02-09T11:16:58.803Z,34.93
2018-02-09T11:19:26.874Z,29.67
2018-02-09T11:21:55.030Z,31.77
2018-02-09T11:24:23.066Z,35.13
2018-02-09T11:26:51.836Z,34.23
2018-02-09T11:29:20.005Z,30.20
2018-02-09T11:31:48.172Z,35.60
2018-02-09T11:34:16.213Z,35.37
2018-02-09T11:36:44.340Z,35.03
2018-02-09T11:39:13.080Z,33.57
2018-02-09T11:41:41.130Z,37.47
2018-02-09T11:44:09.301Z,35.07
2018-02-09T11:46:37.316Z,36.67
2018-02-09T11:49:05.364Z,37.83
2018-02-09T11:51:33.597Z,35.10
2018-02-09T11:54:02.340Z,35.70
2018-02-09T11:56:30.353Z,34.87
2018-02-09T11:58:58.534Z,36.30
2018-02-09T12:01:26.675Z,32.20
2018-02-09T12:03:54.698Z,34.40
2018-02-09T12:06:23.592Z,31.73
2018-02-09T12:08:51.637Z,31.33
2018-02-09T12:11:20.502Z,29.87
2018-02-09T12:13:48.795Z,34.00
2018-02-09T12:16:16.953Z,32.33
2018-02-09T12:18:46.868Z,29.77
2018-02-09T12:21:15.972Z,30.13
2018-02-09T12:23:43.964Z,35.20
2018-02-09T12:26:12.022Z,28.47
2018-02-09T12:28:40.185Z,30.33
2018-02-09T12:31:08.214Z,32.90
2018-02-09T12:33:36.285Z,29.57
2018-02-09T12:36:04.408Z,32.97
2018-02-09T12:38:32.452Z,33.57
2018-02-09T12:41:00.556Z,35.10
2018-02-09T12:43:28.729Z,34.77
2018-02-09T12:45:56.751Z,35.33
2018-02-09T12:48:24.802Z,37.87
2018-02-09T12:50:53.006Z,31.47
2018-02-09T12:53:21.461Z,37.60
2018-02-09T12:55:50.254Z,30.00
2018-02-09T12:58:19.165Z,29.97
2018-02-09T13:00:47.229Z,32.80
2018-02-09T13:03:16.024Z,27.63
2018-02-09T13:05:44.908Z,30.10
2018-02-09T13:08:13.708Z,25.27
2018-02-09T13:10:41.716Z,28.77
2018-02-09T13:13:11.859Z,29.17
2018-02-09T13:15:40.071Z,26.10
2018-02-09T13:18:09.151Z,30.30
2018-02-09T13:20:38.133Z,25.87
2018-02-09T13:23:17.550Z,29.00
2018-02-09T13:25:45.773Z,30.53
2018-02-09T13:28:25.990Z,35.23
2018-02-09T13:30:54.333Z,26.90
2018-02-09T13:33:28.892Z,29.17
2018-02-09T13:35:56.914Z,28.87
2018-02-09T13:38:25.716Z,29.93
2018-02-09T13:40:53.849Z,31.53
2018-02-09T13:43:22.066Z,27.83
2018-02-09T13:45:50.107Z,29.47
2018-02-09T13:48:18.892Z,29.73
2018-02-09T13:50:47.186Z,29.30
2018-02-09T13:53:15.939Z,28.90
2018-02-09T13:55:43.987Z,29.03
2018-02-09T13:58:12.200Z,28.23
2018-02-09T14:00:40.255Z,30.00
2018-02-09T14:03:08.302Z,30.93
2018-02-09T14:05:36.421Z,32.33
2018-02-09T14:08:04.448Z,31.77
2018-02-09T14:10:32.512Z,29.93
2018-02-09T14:13:00.646Z,32.33
2018-02-09T14:15:29.428Z,34.17
2018-02-09T14:17:57.622Z,31.77
2018-02-09T14:20:26.514Z,33.67
2018-02-09T14:22:55.363Z,32.57
2018-02-09T14:25:23.413Z,32.80
2018-02-09T14:27:51.576Z,36.23
2018-02-09T14:30:19.576Z,39.60
2018-02-09T14:32:47.619Z,33.53
2018-02-09T14:35:15.806Z,32.03
2018-02-09T14:37:43.896Z,34.60
2018-02-09T14:40:11.947Z,32.43
2018-02-09T14:42:40.108Z,33.40
2018-02-09T14:45:08.112Z,32.87
2018-02-09T14:47:36.115Z,39.60
2018-02-09T14:50:04.308Z,33.67
2018-02-09T14:52:33.078Z,35.07
2018-02-09T14:55:01.250Z,30.57
2018-02-09T14:57:29.578Z,30.83
2018-02-09T14:59:57.623Z,31.23
2018-02-09T15:02:26.396Z,39.43
2018-02-09T15:04:54.581Z,32.40
2018-02-09T15:07:23.323Z,32.67
2018-02-09T15:09:51.330Z,31.17
2018-02-09T15:12:19.474Z,32.00
2018-02-09T15:14:47.508Z,41.33
2018-02-09T15:17:16.327Z,31.40
2018-02-09T15:19:44.625Z,33.77
2018-02-09T15:22:12.688Z,41.13
2018-02-09T15:24:40.732Z,30.03
2018-02-09T15:27:08.879Z,32.57
2018-02-09T15:29:37.662Z,38.07
2018-02-09T15:32:06.490Z,37.90
2018-02-09T15:34:34.621Z,34.83
2018-02-09T15:37:02.674Z,31.53
2018-02-09T15:39:30.697Z,32.90
2018-02-09T15:41:58.893Z,32.50
2018-02-09T15:44:26.920Z,37.10
2018-02-09T15:46:55.673Z,28.43
2018-02-09T15:49:23.846Z,35.17
2018-02-09T15:51:51.881Z,27.27
2018-02-09T15:54:19.871Z,28.23
2018-02-09T15:56:47.996Z,28.17
2018-02-09T15:59:16.029Z,33.63
2018-02-09T16:01:44.126Z,41.40
2018-02-09T16:04:12.292Z,34.43
2018-02-09T16:06:40.346Z,30.73
2018-02-09T16:09:08.354Z,36.40
2018-02-09T16:11:36.631Z,30.23
2018-02-09T16:14:04.646Z,23.90
2018-02-09T16:16:32.698Z,26.20
2018-02-09T16:19:01.553Z,26.70
2018-02-09T16:21:29.722Z,26.63
2018-02-09T16:23:57.717Z,26.60
2018-02-09T16:26:25.903Z,26.57
2018-02-09T16:28:54.657Z,30.10
2018-02-09T16:31:22.699Z,28.83
2018-02-09T16:33:50.865Z,28.60
2018-02-09T16:36:18.901Z,24.87
2018-02-09T16:38:46.906Z,27.00
2018-02-09T16:41:15.770Z,39.50
2018-02-09T16:43:43.760Z,33.37
2018-02-09T16:46:12.492Z,31.53
2018-02-09T16:48:40.625Z,27.57
2018-02-09T16:51:08.688Z,34.30
2018-02-09T16:53:37.420Z,33.07
2018-02-09T16:56:05.548Z,23.70
2018-02-09T16:58:34.312Z,35.30
2018-02-09T17:01:02.570Z,28.23
2018-02-09T17:03:30.730Z,34.80
2018-02-09T17:05:58.735Z,22.47
2018-02-09T17:08:26.775Z,28.57
2018-02-09T17:10:54.917Z,34.60
2018-02-09T17:13:22.939Z,33.70
2018-02-09T17:15:50.952Z,32.17
2018-02-09T17:18:19.837Z,30.00
2018-02-09T17:20:48.669Z,39.47
2018-02-09T17:23:16.801Z,26.67
2018-02-09T17:25:45.798Z,27.30
2018-02-09T17:28:14.003Z,31.03
2018-02-09T17:30:42.072Z,29.63
2018-02-09T17:33:10.266Z,33.60
2018-02-09T17:35:38.881Z,33.20
2018-02-09T17:38:06.886Z,26.70
2018-02-09T17:40:37.195Z,28.97
2018-02-09T17:43:05.971Z,27.27
2018-02-09T17:45:34.006Z,24.17
2018-02-09T17:48:02.340Z,29.60
2018-02-09T17:50:31.178Z,35.60
2018-02-09T17:52:59.225Z,38.77
2018-02-09T17:55:27.390Z,30.90
2018-02-09T17:57:56.136Z,40.83
2018-02-09T18:00:24.247Z,27.10
2018-02-09T18:02:53.226Z,26.60
2018-02-09T18:05:21.232Z,31.17
2018-02-09T18:07:49.234Z,37.50
2018-02-09T18:10:17.426Z,42.97
2018-02-09T18:12:45.480Z,42.07
2018-02-09T18:15:13.493Z,40.27
2018-02-09T18:17:43.586Z,42.13
2018-02-09T18:20:11.658Z,36.73
2018-02-09T18:22:40.804Z,31.13
2018-02-09T18:25:09.140Z,30.83
2018-02-09T18:27:37.165Z,51.80
2018-02-09T18:30:05.860Z,46.83
2018-02-09T18:32:34.026Z,32.77
2018-02-09T18:35:02.059Z,40.93
2018-02-09T18:37:31.982Z,33.97
2018-02-09T18:40:00.928Z,44.67
2018-02-09T18:42:29.772Z,39.80
2018-02-09T18:44:58.018Z,36.07
2018-02-09T18:47:26.153Z,33.80
2018-02-09T18:49:54.205Z,38.30
2018-02-09T18:52:22.998Z,42.23
2018-02-09T18:54:52.712Z,43.60
2018-02-09T18:57:21.495Z,46.47
2018-02-09T18:59:50.294Z,48.90
2018-02-09T19:02:18.471Z,49.73
2018-02-09T19:04:46.513Z,50.87
2018-02-09T19:07:14.537Z,44.07
2018-02-09T19:09:42.723Z,51.17
2018-02-09T19:12:10.809Z,39.40
2018-02-09T19:14:38.866Z,50.10
2018-02-09T19:17:07.002Z,50.20
2018-02-09T19:19:35.781Z,45.20
2018-02-09T19:22:04.616Z,55.43
2018-02-09T19:24:32.815Z,47.73
2018-02-09T19:27:01.042Z,64.37
2018-02-09T19:29:29.086Z,71.57
2018-02-09T19:31:58.188Z,54.13
2018-02-09T19:34:27.027Z,58.20
2018-02-09T19:36:55.050Z,56.80
2018-02-09T19:39:23.933Z,60.20
2018-02-09T19:41:52.094Z,50.77
2018-02-09T19:44:20.107Z,54.67
2018-02-09T19:46:49.076Z,61.77
2018-02-09T19:49:17.076Z,70.57
2018-02-09T19:51:45.280Z,71.30
2018-02-09T19:54:13.400Z,69.70
2018-02-09T19:56:42.205Z,63.83
2018-02-09T19:59:10.939Z,66.13
2018-02-09T20:01:39.132Z,71.43
2018-02-09T20:04:07.190Z,70.23
2018-02-09T20:06:35.232Z,79.10
2018-02-09T20:09:03.672Z,88.30
2018-02-09T20:11:31.790Z,79.00
2018-02-09T20:13:59.826Z,76.23
2018-02-09T20:16:27.948Z,74.20
2018-02-09T20:18:55.976Z,78.83
2018-02-09T20:21:24.637Z,83.50
2018-02-09T20:23:52.800Z,74.70
2018-02-09T20:26:20.828Z,83.50
2018-02-09T20:28:49.768Z,84.80
2018-02-09T20:31:17.937Z,73.90
2018-02-09T20:33:46.759Z,83.13
2018-02-09T20:36:14.802Z,77.27
2018-02-09T20:38:42.967Z,77.07
2018-02-09T20:41:10.956Z,72.17
2018-02-09T20:43:38.980Z,74.97
2018-02-09T20:46:07.142Z,77.73
2018-02-09T20:48:35.884Z,77.43
2018-02-09T20:51:03.939Z,77.90
2018-02-09T20:53:32.108Z,78.17
2018-02-09T20:56:00.100Z,79.27
2018-02-09T20:58:28.101Z,81.20
2018-02-09T21:00:56.289Z,88.00
2018-02-09T21:03:25.075Z,88.27
2018-02-09T21:05:53.826Z,77.67
2018-02-09T21:08:21.994Z,73.70
2018-02-09T21:10:50.021Z,89.03
2018-02-09T21:13:18.755Z,79.40
2018-02-09T21:15:46.893Z,85.00
2018-02-09T21:18:15.623Z,82.67
2018-02-09T21:20:43.612Z,85.80
2018-02-09T21:23:11.802Z,81.87
2018-02-09T21:25:39.799Z,83.00
2018-02-09T21:28:08.542Z,80.67
2018-02-09T21:30:36.818Z,90.00
2018-02-09T21:33:04.813Z,87.67
2018-02-09T21:35:33.563Z,80.27
2018-02-09T21:38:01.685Z,85.70
2018-02-09T21:40:31.458Z,81.83
2018-02-09T21:42:59.504Z,81.13
2018-02-09T21:45:27.604Z,88.73
2018-02-09T21:47:55.631Z,81.43
2018-02-09T21:50:23.627Z,83.77
2018-02-09T21:52:51.788Z,83.77
2018-02-09T21:55:19.794Z,87.10
2018-02-09T21:57:47.820Z,82.20
2018-02-09T22:00:15.998Z,88.30
2018-02-09T22:02:44.006Z,94.20
2018-02-09T22:05:11.999Z,84.90
2018-02-09T22:07:40.189Z,95.37
2018-02-09T22:10:08.184Z,84.80
2018-02-09T22:12:36.180Z,90.03
2018-02-09T22:15:04.342Z,82.83
2018-02-09T22:17:32.367Z,87.67
2018-02-09T22:20:00.364Z,86.00
2018-02-09T22:22:29.252Z,83.67
2018-02-09T22:24:58.020Z,86.97
2018-02-09T22:27:26.070Z,93.70
2018-02-09T22:29:54.230Z,91.90
2018-02-09T22:32:22.388Z,86.70
2018-02-09T22:34:50.398Z,86.77
2018-02-09T22:37:18.569Z,88.87
2018-02-09T22:39:46.574Z,91.57
2018-02-09T22:42:15.426Z,89.67
2018-02-09T22:44:43.578Z,91.33
2018-02-09T22:47:11.601Z,92.00
2018-02-09T22:49:39.698Z,89.10
2018-02-09T22:52:08.623Z,89.23
2018-02-09T22:54:36.625Z,87.60
2018-02-09T22:57:04.624Z,85.03
2018-02-09T22:59:33.537Z,88.90
2018-02-09T23:02:01.604Z,82.00
2018-02-09T23:04:29.596Z,85.07
2018-02-09T23:06:57.785Z,80.50
2018-02-09T23:09:25.825Z,80.27
2018-02-09T23:11:53.895Z,81.60
2018-02-09T23:14:22.049Z,84.10
2018-02-09T23:16:50.816Z,87.23
2018-02-09T23:19:18.807Z,85.27
2018-02-09T23:21:47.768Z,90.57
2018-02-09T23:24:15.792Z,84.73
2018-02-09T23:26:44.536Z,79.43
2018-02-09T23:29:12.698Z,71.27
2018-02-09T23:31:40.756Z,69.17
2018-02-09T23:34:08.880Z,66.90
2018-02-09T23:36:37.046Z,66.30
2018-02-09T23:39:05.215Z,75.67
2018-02-09T23:41:33.327Z,77.10
2018-02-09T23:44:02.205Z,75.83
2018-02-09T23:46:30.964Z,91.23
2018-02-09T23:48:58.962Z,86.10
2018-02-09T23:51:27.067Z,91.50
2018-02-09T23:53:55.052Z,78.77
2018-02-09T23:56:23.040Z,86.27
2018-02-09T23:58:51.193Z,88.23
